Steele City, Nebraska
Current Conditions -  °F | °C
As of 12:15 AM on Friday 31 Oct 2014 (Local Time) from KBIE Reporting Station
Overcast Overcast  
Wind Chill: 36°   Ceiling: 2300
Heat Index: 45°   Visibility: 10mi
Dew Point: 35°   Wind: 23mph
Humidity: 69%   Direction: 10°N
Pressure: 30.36"   Gusts: 32mph
Location:  40.04°N, 97.02°W
Report Text: KBIE 310515Z AUTO 01020G28KT 10SM OVC023 07/02 A3036 RMK AO2 T00720019
Loading
Personal Weather Stations






























Interactive Weather Map
Tropical Storm Tracking
New forecast layout! Learn more

10-Day Weather Forecast

Advertisements
Track Severe Weather on mobile